Kezdőlap
METAR-TAF:

METAR-TAF

Repülőterek :

Mandalay, Mianmar

földrajzi szélesség: 21-59N, földrajzi hosszúság: 096-06E, magasság: 74 m

Jelenlegi meteorológiai megfigyelések

A jelentés 59 perccel ezelõtt készült, 02:30 UTC
Északnyugati szél 2 kt
Hőmérséklet 31°C
Páratartalom 43%
Légköri nyomás 1011 hPa
Látótávolság: 6000 m
Szórványos felhőzet 2500 lábon
Száraz légköri homály,

METAR: VYMD 130230Z 32002KT 6000 HZ SCT025 31/17 Q1011

Idő: 09:59 (03:29 UTC)

Előrejelzés

A jelentés 16 órával és 29 perccel ezelõtt készült, 11:00 UTC
Az előrejelzés 12-én 12 óra UTC és 13-én 12 óra UTC között érvényes
Északi szél 4 kt
Látótávolság: 7000 m
Kevés felhő 2500 lábon
12-én 12 óra UTC és 12-én 18 óra UTC között ideiglenes
Északnyugati szél 6 kt
Látótávolság: 6000 m
Kevés felhő 2500 lábon
Száraz légköri homály,

TAF: VYMD 121100Z 1212/1312 36004KT 7000 FEW025 TEMPO 1212/1218 32006KT 6000 HZ FEW025

Meteorológiai megfigyelések és előrejelzések több, mint 4000 repülőtéren (METAR és TAF jelentéseket).

A térképen piros és sárga pontok jelzik az elérhető meteorológiai állomásokat.

Mozgassa az egeret a pont fölött, hogy megjelenjen az állomás neve.

Azután kattintson az időjárási megfigyelések és előrejelzések megtekintéséhez.

A térkép megváltoztatása: kattintson a fekete keresztel jelölt zöld gombra ráközelítéshez, a vonallal jelölt zöld gombra távolításhoz, vagy a zöld nyilakra a szomszédos térképek eléréséhez.


METAR-TAF: